createdAt,value
2023-02-15T00:04:15.629Z,2.28
2023-02-15T00:09:20.931Z,2.25
2023-02-15T00:14:25.759Z,2.00
2023-02-15T00:19:29.455Z,1.98
2023-02-15T00:24:34.881Z,1.70
2023-02-15T00:29:38.514Z,1.40
2023-02-15T00:34:42.148Z,1.45
2023-02-15T00:39:48.401Z,1.50
2023-02-15T00:44:51.995Z,1.00
2023-02-15T00:49:55.644Z,1.48
2023-02-15T00:55:00.927Z,1.65
2023-02-15T01:00:04.776Z,1.80
2023-02-15T01:05:08.762Z,1.70
2023-02-15T01:10:15.236Z,1.80
2023-02-15T01:15:18.980Z,2.10
2023-02-15T01:20:23.827Z,2.00
2023-02-15T01:25:29.175Z,2.08
2023-02-15T01:30:33.732Z,2.17
2023-02-15T01:35:39.138Z,2.20
2023-02-15T01:40:44.441Z,2.20
2023-02-15T01:45:51.047Z,2.50
2023-02-15T01:50:58.408Z,2.97
2023-02-15T01:56:07.155Z,3.20
2023-02-15T02:01:11.091Z,3.40
2023-02-15T02:06:14.869Z,2.90
2023-02-15T02:11:20.154Z,2.90
2023-02-15T02:16:30.207Z,2.83
2023-02-15T02:22:09.605Z,2.70
2023-02-15T02:27:31.324Z,2.78
2023-02-15T02:33:20.083Z,2.58
2023-02-15T02:38:30.032Z,2.83
2023-02-15T02:43:42.072Z,2.60
2023-02-15T02:48:48.676Z,2.65
2023-02-15T02:53:55.306Z,3.40
2023-02-15T02:59:03.096Z,2.90
2023-02-15T03:04:12.443Z,2.72
2023-02-15T03:09:26.600Z,2.38
2023-02-15T03:14:30.735Z,2.10
2023-02-15T03:19:38.752Z,1.80
2023-02-15T03:24:48.605Z,2.30
2023-02-15T03:29:57.246Z,1.67
2023-02-15T03:35:03.403Z,1.85
2023-02-15T03:40:13.099Z,2.28
2023-02-15T03:45:24.393Z,1.70
2023-02-15T03:50:32.430Z,1.70
2023-02-15T03:55:36.726Z,1.45
2023-02-15T04:00:45.284Z,1.50
2023-02-15T04:05:50.735Z,1.45
2023-02-15T04:10:54.470Z,1.20
2023-02-15T04:15:58.148Z,1.20
2023-02-15T04:21:04.048Z,1.40
2023-02-15T04:26:07.932Z,1.25
2023-02-15T04:31:11.637Z,1.73
2023-02-15T04:36:16.968Z,1.52
2023-02-15T04:41:20.628Z,1.10
2023-02-15T04:46:24.484Z,1.23
2023-02-15T04:51:29.811Z,1.20
2023-02-15T04:56:33.496Z,1.00
2023-02-15T05:01:37.101Z,1.00
2023-02-15T05:06:43.427Z,0.90
2023-02-15T05:16:49.932Z,1.05
2023-02-15T05:21:56.294Z,1.23
2023-02-15T05:32:03.019Z,1.20
2023-02-15T05:37:08.453Z,0.85
2023-02-15T05:42:12.074Z,1.02
2023-02-15T05:47:15.699Z,1.00
2023-02-15T05:52:21.186Z,0.80
2023-02-15T05:57:24.805Z,1.13
2023-02-15T06:02:28.667Z,0.93
2023-02-15T06:07:34.148Z,0.77
2023-02-15T06:12:37.767Z,0.80
2023-02-15T06:17:43.259Z,0.85
2023-02-15T06:22:48.565Z,0.80
2023-02-15T06:27:52.220Z,1.02
2023-02-15T06:32:55.844Z,0.80
2023-02-15T06:38:01.126Z,0.80
2023-02-15T06:43:04.750Z,1.00
2023-02-15T06:48:08.375Z,1.05
2023-02-15T06:53:13.663Z,1.05
2023-02-15T06:58:17.321Z,0.70
2023-02-15T07:03:20.940Z,0.90
2023-02-15T07:08:26.626Z,0.70
2023-02-15T07:13:30.275Z,0.40
2023-02-15T07:18:33.932Z,0.60
2023-02-15T07:23:40.040Z,0.63
2023-02-15T07:28:43.720Z,0.80
2023-02-15T07:33:47.352Z,0.52
2023-02-15T07:38:52.627Z,0.82
2023-02-15T07:43:56.262Z,0.93
2023-02-15T07:48:59.938Z,0.88
2023-02-15T07:54:05.302Z,0.70
2023-02-15T07:59:08.921Z,0.75
2023-02-15T08:04:13.322Z,0.63
2023-02-15T08:09:18.610Z,0.70
2023-02-15T08:14:23.220Z,1.00
2023-02-15T08:19:28.117Z,0.90
2023-02-15T08:24:34.739Z,1.08
2023-02-15T08:29:40.008Z,0.70
2023-02-15T08:34:44.467Z,0.80
2023-02-15T08:39:49.780Z,0.98
2023-02-15T08:44:53.387Z,0.93
2023-02-15T08:49:57.103Z,0.82
2023-02-15T08:55:02.699Z,0.70
2023-02-15T09:00:07.421Z,0.77
2023-02-15T09:05:11.029Z,0.60
2023-02-15T09:10:16.474Z,1.02
2023-02-15T09:15:20.095Z,0.93
2023-02-15T09:20:23.781Z,0.65
2023-02-15T09:25:29.443Z,0.77
2023-02-15T09:30:33.209Z,0.90
2023-02-15T09:35:37.483Z,0.70
2023-02-15T09:41:04.867Z,0.73
2023-02-15T09:46:24.294Z,0.85
2023-02-15T09:51:53.949Z,0.70
2023-02-15T09:57:03.487Z,1.00
2023-02-15T10:02:22.001Z,0.70
2023-02-15T10:07:42.792Z,0.70
2023-02-15T10:13:10.453Z,0.70
2023-02-15T10:18:32.486Z,0.98
2023-02-15T10:23:58.762Z,0.73
2023-02-15T10:29:08.685Z,0.70
2023-02-15T10:34:20.010Z,0.80
2023-02-15T10:39:32.370Z,0.68
2023-02-15T10:44:50.061Z,0.82
2023-02-15T10:50:18.512Z,0.70
2023-02-15T10:55:36.422Z,0.70
2023-02-15T11:00:47.499Z,0.77
2023-02-15T11:06:03.375Z,0.60
2023-02-15T11:11:10.917Z,0.70
2023-02-15T11:16:19.200Z,0.70
2023-02-15T11:21:27.882Z,0.73
2023-02-15T11:26:35.801Z,0.70
2023-02-15T11:31:47.868Z,0.73
2023-02-15T11:36:55.455Z,0.60
2023-02-15T11:42:03.202Z,0.50
2023-02-15T11:47:13.229Z,0.50
2023-02-15T11:52:19.545Z,0.70
2023-02-15T11:57:29.535Z,0.60
2023-02-15T12:02:37.482Z,0.57
2023-02-15T12:07:47.050Z,0.60
2023-02-15T12:13:09.917Z,0.82
2023-02-15T12:18:28.963Z,0.60
2023-02-15T12:23:34.609Z,0.50
2023-02-15T12:28:42.141Z,0.60
2023-02-15T12:33:48.741Z,0.40
2023-02-15T12:39:21.096Z,0.63
2023-02-15T12:44:27.173Z,0.60
2023-02-15T12:49:33.519Z,0.40
2023-02-15T12:54:41.865Z,0.73
2023-02-15T12:59:55.902Z,0.60
2023-02-15T13:05:16.022Z,0.47
2023-02-15T13:10:28.316Z,0.47
2023-02-15T13:15:37.363Z,0.50
2023-02-15T13:20:44.271Z,0.50
2023-02-15T13:25:49.618Z,0.70
2023-02-15T13:30:53.642Z,0.60
2023-02-15T13:36:07.000Z,0.70
2023-02-15T13:41:16.797Z,0.30
2023-02-15T13:46:38.497Z,0.50
2023-02-15T13:51:50.053Z,0.70
2023-02-15T13:57:08.851Z,0.35
2023-02-15T14:02:46.207Z,0.50
2023-02-15T14:13:21.928Z,0.45
2023-02-15T14:18:33.518Z,0.38
2023-02-15T14:23:49.770Z,0.57
2023-02-15T14:29:07.673Z,0.38
2023-02-15T14:34:23.318Z,0.40
2023-02-15T14:39:38.576Z,0.40
2023-02-15T14:44:50.057Z,0.47
2023-02-15T14:49:53.724Z,0.50
2023-02-15T14:55:01.177Z,0.30
2023-02-15T15:00:26.716Z,0.30
2023-02-15T15:05:36.710Z,0.50
2023-02-15T15:10:45.423Z,0.47
2023-02-15T15:15:49.327Z,0.30
2023-02-15T15:20:53.588Z,0.50
2023-02-15T15:26:20.503Z,0.50
2023-02-15T15:31:32.804Z,0.20
2023-02-15T15:37:13.256Z,0.45
2023-02-15T15:42:32.577Z,0.50
2023-02-15T15:48:05.216Z,0.60
2023-02-15T15:53:21.853Z,0.50
2023-02-15T15:58:27.545Z,0.47
2023-02-15T16:03:31.684Z,0.33
2023-02-15T16:08:36.991Z,0.32
2023-02-15T16:13:44.334Z,0.20
2023-02-15T16:18:48.923Z,0.45
2023-02-15T16:24:18.395Z,0.60
2023-02-15T16:29:29.800Z,0.47
2023-02-15T16:34:33.978Z,0.40
2023-02-15T16:39:43.852Z,0.38
2023-02-15T16:44:53.011Z,0.55
2023-02-15T16:49:59.919Z,0.52
2023-02-15T16:55:07.471Z,0.30
2023-02-15T17:00:23.345Z,0.20
2023-02-15T17:05:33.335Z,0.20
2023-02-15T17:10:38.607Z,0.15
2023-02-15T17:15:45.528Z,0.17
2023-02-15T17:20:51.720Z,0.30
2023-02-15T17:25:55.704Z,0.20
2023-02-15T17:31:01.513Z,0.40
2023-02-15T17:41:12.486Z,0.30
2023-02-15T17:46:18.082Z,0.30
2023-02-15T17:51:25.513Z,0.40
2023-02-15T17:56:29.192Z,0.50
2023-02-15T18:01:36.820Z,0.30
2023-02-15T18:06:42.530Z,0.17
2023-02-15T18:11:46.198Z,0.30
2023-02-15T18:16:51.651Z,0.20
2023-02-15T18:21:55.514Z,0.30
2023-02-15T18:26:59.155Z,0.22
2023-02-15T18:32:08.505Z,0.40
2023-02-15T18:37:16.500Z,0.30
2023-02-15T18:42:23.347Z,0.20
2023-02-15T18:47:28.773Z,0.20
2023-02-15T18:52:36.860Z,0.40
2023-02-15T18:57:40.999Z,0.57
2023-02-15T19:02:46.876Z,0.20
2023-02-15T19:12:56.055Z,0.30
2023-02-15T19:18:01.456Z,0.20
2023-02-15T19:23:07.492Z,0.30
2023-02-15T19:28:17.026Z,0.40
2023-02-15T19:33:22.720Z,0.32
2023-02-15T19:38:31.209Z,0.20
2023-02-15T19:43:35.861Z,0.40
2023-02-15T19:48:41.150Z,0.25
2023-02-15T19:53:46.109Z,0.40
2023-02-15T19:58:50.735Z,0.43
2023-02-15T20:03:57.009Z,0.32
2023-02-15T20:09:00.805Z,0.30
2023-02-15T20:14:04.446Z,0.45
2023-02-15T20:19:09.746Z,0.38
2023-02-15T20:24:16.899Z,0.23
2023-02-15T20:29:20.577Z,0.30
2023-02-15T20:34:25.899Z,0.40
2023-02-15T20:44:56.813Z,0.40
2023-02-15T20:50:02.078Z,0.50
2023-02-15T20:55:16.527Z,0.40
2023-02-15T21:00:22.066Z,0.35
2023-02-15T21:05:28.660Z,0.55
2023-02-15T21:10:35.082Z,0.50
2023-02-15T21:15:39.323Z,0.50
2023-02-15T21:20:47.349Z,0.60
2023-02-15T21:25:50.970Z,0.50
2023-02-15T21:30:56.397Z,0.40
2023-02-15T21:36:02.921Z,0.50
2023-02-15T21:41:06.734Z,0.82
2023-02-15T21:46:14.912Z,0.30
2023-02-15T21:51:20.201Z,0.52
2023-02-15T21:56:24.332Z,0.60
2023-02-15T22:01:29.363Z,0.30
2023-02-15T22:06:34.665Z,0.53
2023-02-15T22:11:38.337Z,0.40
2023-02-15T22:16:42.024Z,0.47
2023-02-15T22:21:47.372Z,0.50
2023-02-15T22:26:51.027Z,0.65
2023-02-15T22:31:54.782Z,0.40
2023-02-15T22:37:00.432Z,0.50
2023-02-15T22:42:04.215Z,0.55
2023-02-15T22:47:16.507Z,0.50
2023-02-15T22:52:22.145Z,0.70
2023-02-15T22:57:30.990Z,0.40
2023-02-15T23:02:34.650Z,0.75
2023-02-15T23:07:40.931Z,0.57
2023-02-15T23:12:44.748Z,0.93
2023-02-15T23:17:48.437Z,1.00
2023-02-15T23:22:53.798Z,1.08
2023-02-15T23:27:57.489Z,0.77
2023-02-15T23:33:01.672Z,1.08
2023-02-15T23:38:17.972Z,1.27
2023-02-15T23:48:31.969Z,0.80
2023-02-15T23:53:37.323Z,1.00
2023-02-15T23:58:43.042Z,0.80
